createdAt,value
2023-10-29T00:00:31.821Z,3.67
2023-10-29T00:01:34.127Z,2.45
2023-10-29T00:02:36.758Z,2.80
2023-10-29T00:03:39.187Z,1.98
2023-10-29T00:04:41.579Z,2.05
2023-10-29T00:05:44.502Z,1.80
2023-10-29T00:06:46.802Z,2.28
2023-10-29T00:07:50.225Z,2.17
2023-10-29T00:08:52.623Z,1.98
2023-10-29T00:09:55.134Z,2.10
2023-10-29T00:10:57.538Z,2.20
2023-10-29T00:11:59.837Z,2.88
2023-10-29T00:13:03.365Z,3.00
2023-10-29T00:14:05.840Z,2.28
2023-10-29T00:15:08.415Z,2.13
2023-10-29T00:16:12.572Z,2.38
2023-10-29T00:17:15.245Z,2.50
2023-10-29T00:18:19.277Z,2.22
2023-10-29T00:19:21.882Z,3.13
2023-10-29T00:20:24.137Z,2.75
2023-10-29T00:21:26.565Z,3.00
2023-10-29T00:22:29.168Z,2.58
2023-10-29T00:23:31.440Z,1.92
2023-10-29T00:24:34.083Z,2.50
2023-10-29T00:25:36.310Z,2.13
2023-10-29T00:26:38.593Z,1.92
2023-10-29T00:27:41.271Z,2.17
2023-10-29T00:28:43.488Z,1.95
2023-10-29T00:29:47.914Z,2.67
2023-10-29T00:30:50.325Z,1.90
2023-10-29T00:31:52.789Z,2.08
2023-10-29T00:32:55.462Z,1.60
2023-10-29T00:33:57.753Z,1.95
2023-10-29T00:35:00.277Z,1.60
2023-10-29T00:36:02.865Z,2.03
2023-10-29T00:37:05.454Z,1.77
2023-10-29T00:38:08.482Z,1.67
2023-10-29T00:39:10.751Z,1.63
2023-10-29T00:40:13.055Z,1.38
2023-10-29T00:41:15.509Z,1.50
2023-10-29T00:42:17.890Z,1.73
2023-10-29T00:43:20.365Z,1.73
2023-10-29T00:44:23.391Z,1.83
2023-10-29T00:45:25.662Z,1.35
2023-10-29T00:46:28.464Z,1.63
2023-10-29T00:47:31.083Z,1.50
2023-10-29T00:48:34.353Z,1.35
2023-10-29T00:49:37.443Z,1.48
2023-10-29T00:50:40.465Z,1.50
2023-10-29T00:51:44.967Z,1.15
2023-10-29T00:52:47.749Z,1.50
2023-10-29T00:53:50.075Z,1.48
2023-10-29T00:54:52.607Z,1.92
2023-10-29T00:55:55.837Z,1.48
2023-10-29T00:56:58.475Z,1.92
2023-10-29T00:58:01.267Z,1.52
2023-10-29T00:59:04.167Z,1.80
2023-10-29T01:00:07.655Z,1.40
2023-10-29T01:01:09.979Z,1.40
2023-10-29T01:02:12.703Z,1.30
2023-10-29T01:03:15.859Z,1.65
2023-10-29T01:04:18.175Z,1.90
2023-10-29T01:05:20.606Z,1.67
2023-10-29T01:06:23.320Z,1.83
2023-10-29T01:07:26.092Z,1.45
2023-10-29T01:08:29.191Z,2.42
2023-10-29T01:09:31.776Z,1.33
2023-10-29T01:10:34.364Z,1.40
2023-10-29T01:11:36.676Z,1.60
2023-10-29T01:12:39.836Z,1.30
2023-10-29T01:13:42.499Z,1.50
2023-10-29T01:14:45.618Z,1.42
2023-10-29T01:15:48.238Z,1.83
2023-10-29T01:16:50.674Z,1.88
2023-10-29T01:17:53.248Z,1.92
2023-10-29T01:18:59.464Z,1.60
2023-10-29T01:20:04.736Z,2.30
2023-10-29T01:21:10.014Z,1.80
2023-10-29T01:22:12.444Z,1.80
2023-10-29T01:23:15.052Z,1.83
2023-10-29T01:24:17.249Z,1.83
2023-10-29T01:25:19.741Z,1.48
2023-10-29T01:26:22.506Z,2.10
2023-10-29T01:27:24.843Z,1.55
2023-10-29T01:28:27.751Z,2.00
2023-10-29T01:29:31.526Z,1.70
2023-10-29T01:30:33.829Z,1.80
2023-10-29T01:31:36.303Z,1.90
2023-10-29T01:32:39.708Z,1.85
2023-10-29T01:33:42.170Z,1.70
2023-10-29T01:34:44.461Z,2.10
2023-10-29T01:35:47.121Z,2.60
2023-10-29T01:36:51.297Z,1.90
2023-10-29T01:37:53.707Z,1.67
2023-10-29T01:38:56.287Z,1.90
2023-10-29T01:39:59.139Z,2.00
2023-10-29T01:41:01.806Z,1.90
2023-10-29T01:42:04.421Z,1.75
2023-10-29T01:43:06.857Z,1.92
2023-10-29T01:44:09.085Z,1.60
2023-10-29T01:45:15.441Z,1.77
2023-10-29T01:46:17.794Z,1.92
2023-10-29T01:47:20.261Z,1.80
2023-10-29T01:48:25.149Z,1.90
2023-10-29T01:49:28.176Z,1.70
2023-10-29T01:50:30.793Z,2.45
2023-10-29T01:51:33.090Z,1.75
2023-10-29T01:52:38.584Z,2.08
2023-10-29T01:53:41.275Z,1.65
2023-10-29T01:54:45.086Z,2.70
2023-10-29T01:55:47.750Z,1.80
2023-10-29T01:56:50.095Z,1.98
2023-10-29T01:57:52.370Z,2.05
2023-10-29T01:58:54.998Z,2.38
2023-10-29T01:59:59.680Z,2.72
2023-10-29T02:01:02.384Z,2.15
2023-10-29T02:02:05.423Z,2.17
2023-10-29T02:03:07.738Z,2.05
2023-10-29T02:04:13.584Z,1.90
2023-10-29T02:05:16.028Z,2.25
2023-10-29T02:06:19.195Z,1.92
2023-10-29T02:07:21.695Z,2.33
2023-10-29T02:08:24.191Z,2.38
2023-10-29T02:09:26.850Z,2.10
2023-10-29T02:10:29.273Z,1.90
2023-10-29T02:11:31.748Z,2.10
2023-10-29T02:12:34.121Z,1.77
2023-10-29T02:13:36.350Z,2.38
2023-10-29T02:14:41.430Z,1.88
2023-10-29T02:15:44.634Z,2.60
2023-10-29T02:16:47.998Z,2.47
2023-10-29T02:17:50.782Z,2.15
2023-10-29T02:18:53.089Z,1.92
2023-10-29T02:19:56.914Z,2.40
2023-10-29T02:20:59.220Z,2.22
2023-10-29T02:22:01.461Z,1.90
2023-10-29T02:23:03.978Z,2.40
2023-10-29T02:24:06.512Z,2.28
2023-10-29T02:25:10.039Z,2.30
2023-10-29T02:26:12.298Z,2.13
2023-10-29T02:27:14.569Z,1.85
2023-10-29T02:28:16.920Z,2.03
2023-10-29T02:29:19.504Z,1.80
2023-10-29T02:30:21.901Z,1.90
2023-10-29T02:31:25.427Z,2.00
2023-10-29T02:32:27.732Z,2.20
2023-10-29T02:33:31.742Z,2.05
2023-10-29T02:34:34.498Z,1.98
2023-10-29T02:35:36.856Z,2.13
2023-10-29T02:36:39.274Z,2.00
2023-10-29T02:37:41.682Z,2.15
2023-10-29T02:38:44.435Z,1.98
2023-10-29T02:39:49.399Z,1.65
2023-10-29T02:40:51.741Z,2.00
2023-10-29T02:41:54.338Z,2.35
2023-10-29T02:42:56.857Z,2.47
2023-10-29T02:43:59.672Z,2.50
2023-10-29T02:45:02.115Z,2.08
2023-10-29T02:46:05.068Z,2.25
2023-10-29T02:47:07.335Z,2.75
2023-10-29T02:48:09.923Z,1.60
2023-10-29T02:49:12.373Z,2.03
2023-10-29T02:50:15.221Z,2.30
2023-10-29T02:51:17.833Z,2.10
2023-10-29T02:52:20.787Z,1.83
2023-10-29T02:53:23.298Z,2.15
2023-10-29T02:54:26.666Z,2.20
2023-10-29T02:55:29.069Z,2.15
2023-10-29T02:56:31.883Z,2.10
2023-10-29T02:57:34.147Z,1.83
2023-10-29T02:58:36.664Z,2.25
2023-10-29T02:59:39.262Z,2.20
2023-10-29T03:00:42.165Z,2.30
2023-10-29T03:01:44.955Z,2.72
2023-10-29T03:02:48.096Z,2.55
2023-10-29T03:03:50.598Z,2.40
2023-10-29T03:04:53.167Z,2.50
2023-10-29T03:05:57.439Z,2.70
2023-10-29T03:07:00.059Z,2.78
2023-10-29T03:08:03.167Z,2.80
2023-10-29T03:09:06.254Z,2.33
2023-10-29T03:10:08.802Z,2.65
2023-10-29T03:11:12.994Z,2.10
2023-10-29T03:12:15.245Z,2.60
2023-10-29T03:13:17.937Z,2.67
2023-10-29T03:14:20.148Z,2.33
2023-10-29T03:15:22.582Z,2.03
2023-10-29T03:16:24.871Z,2.28
2023-10-29T03:17:27.691Z,2.40
2023-10-29T03:18:30.871Z,2.20
2023-10-29T03:19:33.171Z,2.30
2023-10-29T03:20:35.840Z,2.17
2023-10-29T03:21:38.112Z,2.00
2023-10-29T03:22:40.534Z,2.10
2023-10-29T03:23:44.171Z,2.33
2023-10-29T03:24:46.710Z,1.65
2023-10-29T03:25:49.829Z,2.58
2023-10-29T03:26:52.848Z,1.75
2023-10-29T03:27:55.278Z,2.63
2023-10-29T03:28:57.532Z,2.22
2023-10-29T03:30:01.077Z,2.35
2023-10-29T03:31:03.630Z,2.30
2023-10-29T03:32:06.149Z,2.25
2023-10-29T03:33:08.778Z,2.10
2023-10-29T03:34:12.457Z,2.30
2023-10-29T03:35:14.905Z,3.15
2023-10-29T03:36:17.329Z,2.72
2023-10-29T03:37:19.668Z,2.47
2023-10-29T03:38:22.310Z,2.85
2023-10-29T03:39:24.667Z,2.78
2023-10-29T03:40:27.085Z,2.80
2023-10-29T03:41:30.875Z,2.90
2023-10-29T03:42:33.896Z,2.85
2023-10-29T03:43:36.117Z,2.63
2023-10-29T03:44:38.340Z,2.92
2023-10-29T03:45:40.881Z,3.10
2023-10-29T03:46:43.462Z,2.85
2023-10-29T03:47:46.541Z,2.80
2023-10-29T03:48:48.988Z,2.67
2023-10-29T03:49:51.517Z,2.03
2023-10-29T03:50:54.025Z,2.10
2023-10-29T03:51:56.285Z,2.42
2023-10-29T03:52:58.540Z,2.25
2023-10-29T03:54:00.875Z,2.28
2023-10-29T03:55:03.170Z,2.00
2023-10-29T03:56:06.143Z,2.10
2023-10-29T03:57:08.762Z,2.35
2023-10-29T03:58:11.068Z,2.25
2023-10-29T03:59:13.314Z,2.33
2023-10-29T04:00:15.688Z,2.03
2023-10-29T04:01:18.230Z,1.98
2023-10-29T04:02:20.492Z,1.98
2023-10-29T04:03:22.723Z,2.03
2023-10-29T04:04:25.203Z,2.08
2023-10-29T04:05:28.162Z,1.90
2023-10-29T04:06:31.919Z,1.70
2023-10-29T04:07:34.164Z,2.40
2023-10-29T04:08:36.929Z,2.22
2023-10-29T04:09:39.380Z,2.15
2023-10-29T04:10:41.597Z,1.73
2023-10-29T04:11:44.912Z,2.00
2023-10-29T04:12:47.129Z,1.95
2023-10-29T04:13:49.365Z,2.03
2023-10-29T04:14:51.797Z,1.77
2023-10-29T04:15:54.076Z,1.88
2023-10-29T04:16:56.534Z,1.80
2023-10-29T04:17:58.918Z,1.90
2023-10-29T04:19:01.792Z,2.25
2023-10-29T04:20:07.051Z,2.08
2023-10-29T04:21:09.363Z,2.28
2023-10-29T04:22:11.782Z,1.85
2023-10-29T04:23:14.029Z,2.05
2023-10-29T04:24:16.232Z,1.88
2023-10-29T04:25:18.747Z,2.20
2023-10-29T04:26:21.062Z,1.95
2023-10-29T04:27:23.546Z,2.42
2023-10-29T04:28:26.153Z,1.90
2023-10-29T04:29:28.497Z,2.20
2023-10-29T04:30:30.797Z,2.50
2023-10-29T04:31:33.323Z,2.40
2023-10-29T04:32:35.844Z,2.30
2023-10-29T04:34:41.511Z,1.90
2023-10-29T04:35:43.755Z,1.95
2023-10-29T04:36:49.550Z,2.00
2023-10-29T04:37:52.255Z,1.98
2023-10-29T04:38:54.613Z,1.85
2023-10-29T04:39:57.584Z,1.80
2023-10-29T04:40:59.899Z,1.60
2023-10-29T04:42:02.930Z,1.92
2023-10-29T04:43:05.228Z,2.15
2023-10-29T04:44:07.683Z,1.90
2023-10-29T04:45:12.202Z,2.28
2023-10-29T04:46:14.641Z,2.22
2023-10-29T04:47:18.136Z,1.98
2023-10-29T04:48:20.552Z,1.90
2023-10-29T04:49:23.048Z,2.25
2023-10-29T04:50:25.289Z,2.58
2023-10-29T04:51:28.471Z,1.77
2023-10-29T04:52:30.906Z,2.22
2023-10-29T04:53:36.626Z,1.90
2023-10-29T04:54:39.086Z,1.85
2023-10-29T04:55:41.405Z,1.92
2023-10-29T04:56:43.838Z,2.17
2023-10-29T04:57:46.272Z,1.75
2023-10-29T04:58:48.763Z,1.98
2023-10-29T04:59:51.322Z,1.88
2023-10-29T05:00:54.109Z,2.22
2023-10-29T05:01:56.636Z,1.90
2023-10-29T05:02:59.106Z,1.77
2023-10-29T05:04:01.566Z,1.88
2023-10-29T05:05:04.977Z,1.85
2023-10-29T05:06:07.260Z,2.03
2023-10-29T05:07:09.708Z,1.73
2023-10-29T05:08:12.145Z,1.90
2023-10-29T05:09:14.375Z,1.45
2023-10-29T05:10:16.778Z,2.33
2023-10-29T05:11:19.090Z,1.80
2023-10-29T05:12:21.516Z,1.65
2023-10-29T05:13:23.925Z,1.80
2023-10-29T05:14:26.268Z,2.13
2023-10-29T05:15:28.814Z,1.90
2023-10-29T05:16:31.098Z,2.53
2023-10-29T05:17:33.382Z,1.30
2023-10-29T05:18:36.083Z,1.80
2023-10-29T05:19:40.201Z,1.60
2023-10-29T05:20:42.695Z,1.70
2023-10-29T05:21:45.557Z,1.73
2023-10-29T05:22:47.959Z,1.48
2023-10-29T05:23:50.435Z,2.10
2023-10-29T05:24:52.663Z,2.33
2023-10-29T05:25:55.470Z,1.80
2023-10-29T05:26:57.912Z,2.10
2023-10-29T05:28:00.441Z,1.77
2023-10-29T05:29:02.819Z,1.83
2023-10-29T05:30:08.895Z,1.52
2023-10-29T05:31:11.420Z,1.60
2023-10-29T05:32:13.847Z,1.85
2023-10-29T05:33:16.419Z,2.05
2023-10-29T05:34:18.851Z,1.92
2023-10-29T05:35:22.356Z,2.17
2023-10-29T05:36:24.793Z,2.58
2023-10-29T05:37:27.266Z,2.05
2023-10-29T05:38:29.715Z,2.17
2023-10-29T05:39:32.089Z,1.67
2023-10-29T05:40:34.752Z,1.77
2023-10-29T05:41:37.120Z,2.05
2023-10-29T05:42:39.635Z,1.60
2023-10-29T05:43:42.288Z,2.03
2023-10-29T05:44:44.572Z,1.58
2023-10-29T05:45:47.215Z,2.30
2023-10-29T05:46:49.734Z,1.70
2023-10-29T05:47:52.021Z,1.90
2023-10-29T05:48:54.588Z,1.85
2023-10-29T05:49:56.833Z,1.83
2023-10-29T05:50:59.160Z,1.90
2023-10-29T05:52:01.692Z,1.98
2023-10-29T05:53:03.962Z,1.75
2023-10-29T05:54:06.536Z,1.73
2023-10-29T05:55:09.029Z,1.90
2023-10-29T05:56:11.467Z,1.90
2023-10-29T05:57:14.077Z,1.50
2023-10-29T05:58:16.339Z,1.85
2023-10-29T05:59:20.073Z,1.85
2023-10-29T06:00:22.834Z,1.75
2023-10-29T06:01:25.101Z,2.25
2023-10-29T06:02:27.942Z,1.63
2023-10-29T06:03:30.374Z,1.85
2023-10-29T06:04:33.028Z,1.73
2023-10-29T06:05:35.382Z,2.03
2023-10-29T06:06:37.616Z,1.85
2023-10-29T06:07:45.162Z,2.00
2023-10-29T06:08:47.801Z,1.55
2023-10-29T06:09:50.130Z,1.70
2023-10-29T06:10:52.409Z,2.08
2023-10-29T06:11:54.677Z,1.65
2023-10-29T06:12:57.619Z,2.13
2023-10-29T06:14:00.187Z,1.55
2023-10-29T06:15:02.708Z,2.17
2023-10-29T06:16:09.647Z,1.88
2023-10-29T06:17:25.705Z,1.65
2023-10-29T06:18:29.510Z,1.58
2023-10-29T06:19:33.637Z,1.50
2023-10-29T06:20:35.896Z,1.85
2023-10-29T06:21:38.261Z,1.80
2023-10-29T06:22:40.491Z,1.70
2023-10-29T06:23:43.225Z,2.33
2023-10-29T06:24:45.880Z,1.80
2023-10-29T06:25:48.322Z,1.92
2023-10-29T06:26:50.509Z,1.63
2023-10-29T06:27:53.085Z,1.50
2023-10-29T06:28:55.273Z,2.00
2023-10-29T06:29:57.864Z,1.80
2023-10-29T06:31:00.680Z,1.85
2023-10-29T06:32:03.152Z,1.70
2023-10-29T06:33:05.633Z,1.70
2023-10-29T06:34:08.258Z,1.60
2023-10-29T06:35:10.596Z,1.90
2023-10-29T06:36:13.021Z,1.77
2023-10-29T06:37:15.595Z,1.70
2023-10-29T06:38:17.987Z,1.52
2023-10-29T06:39:20.390Z,1.80
2023-10-29T06:40:22.822Z,2.08
2023-10-29T06:41:25.242Z,1.52
2023-10-29T06:42:27.552Z,1.83
2023-10-29T06:43:29.965Z,2.03
2023-10-29T06:44:32.401Z,1.70
2023-10-29T06:45:34.745Z,1.40
2023-10-29T06:46:37.186Z,2.22
2023-10-29T06:47:39.522Z,1.70
2023-10-29T06:48:43.095Z,1.90
2023-10-29T06:49:45.600Z,2.20
2023-10-29T06:50:47.863Z,1.77
2023-10-29T06:53:19.234Z,1.88
2023-10-29T06:54:21.676Z,1.80
2023-10-29T06:55:27.226Z,1.92
2023-10-29T06:56:29.564Z,1.80
2023-10-29T06:57:31.965Z,2.00
2023-10-29T06:58:34.508Z,1.65
2023-10-29T06:59:36.711Z,1.65
2023-10-29T07:00:39.229Z,1.70
2023-10-29T07:01:41.494Z,1.80
2023-10-29T07:02:43.865Z,1.80
2023-10-29T07:03:46.953Z,1.92
2023-10-29T07:04:50.176Z,1.48
2023-10-29T07:05:52.613Z,1.70
2023-10-29T07:06:55.092Z,1.67
2023-10-29T07:07:57.447Z,2.03
2023-10-29T07:09:00.578Z,1.67
2023-10-29T07:10:05.402Z,1.67
2023-10-29T07:11:07.739Z,1.75
2023-10-29T07:12:10.139Z,2.03
2023-10-29T07:13:12.723Z,1.90
2023-10-29T07:14:15.102Z,1.90
2023-10-29T07:15:17.843Z,1.83
2023-10-29T07:16:20.110Z,1.55
2023-10-29T07:17:23.776Z,1.77
2023-10-29T07:18:26.434Z,1.50
2023-10-29T07:19:28.713Z,1.67
2023-10-29T07:20:31.375Z,1.83
2023-10-29T07:21:33.600Z,2.40
2023-10-29T07:22:36.789Z,2.03
2023-10-29T07:23:39.009Z,1.40
2023-10-29T07:24:41.223Z,1.23
2023-10-29T07:25:43.832Z,1.75
2023-10-29T07:26:46.092Z,1.63
2023-10-29T07:27:48.402Z,1.65
2023-10-29T07:28:50.604Z,2.05
2023-10-29T07:29:52.894Z,1.80
2023-10-29T07:30:56.862Z,2.38
2023-10-29T07:31:59.097Z,2.75
2023-10-29T07:33:01.596Z,1.60
2023-10-29T07:34:04.008Z,1.40
2023-10-29T07:35:06.371Z,1.73
2023-10-29T07:36:09.376Z,2.22
2023-10-29T07:37:13.492Z,1.63
2023-10-29T07:38:15.983Z,1.88
2023-10-29T07:39:18.369Z,2.00
2023-10-29T07:40:20.639Z,2.17
2023-10-29T07:41:23.631Z,2.10
2023-10-29T07:42:26.101Z,1.83
2023-10-29T07:43:28.814Z,1.70
2023-10-29T07:44:31.057Z,1.92
2023-10-29T07:45:33.352Z,1.85
2023-10-29T07:46:36.218Z,1.83
2023-10-29T07:47:38.628Z,2.05
2023-10-29T07:48:41.548Z,2.10
2023-10-29T07:49:43.787Z,2.40
2023-10-29T07:50:52.311Z,1.92
2023-10-29T07:51:54.904Z,2.10
2023-10-29T07:52:57.234Z,1.70
2023-10-29T07:54:01.081Z,1.88
2023-10-29T07:55:03.852Z,1.88
2023-10-29T07:56:14.576Z,2.40
2023-10-29T07:57:16.822Z,1.50
2023-10-29T07:58:19.785Z,1.98
2023-10-29T07:59:22.492Z,1.80
2023-10-29T08:00:24.700Z,1.73
2023-10-29T08:01:27.403Z,2.10
2023-10-29T08:02:31.166Z,1.52
2023-10-29T08:03:33.532Z,1.80
2023-10-29T08:04:36.063Z,2.33
2023-10-29T08:05:38.337Z,1.67
2023-10-29T08:06:40.983Z,1.42
2023-10-29T08:07:43.226Z,1.83
2023-10-29T08:08:45.490Z,1.65
2023-10-29T08:09:47.956Z,1.48
2023-10-29T08:10:50.274Z,1.70
2023-10-29T08:11:53.007Z,1.63
2023-10-29T08:12:55.228Z,1.60
2023-10-29T08:13:58.077Z,1.50
2023-10-29T08:15:00.557Z,1.90
2023-10-29T08:16:04.016Z,1.30
2023-10-29T08:17:06.861Z,1.23
2023-10-29T08:18:09.205Z,1.48
2023-10-29T08:19:11.831Z,1.88
2023-10-29T08:20:14.285Z,1.58
2023-10-29T08:21:16.575Z,1.70
2023-10-29T08:22:19.457Z,1.63
2023-10-29T08:23:21.664Z,1.38
2023-10-29T08:24:23.892Z,1.67
2023-10-29T08:25:26.299Z,1.65
2023-10-29T08:26:30.673Z,1.35
2023-10-29T08:27:33.127Z,1.60
2023-10-29T08:28:37.106Z,1.58
2023-10-29T08:29:41.175Z,1.52
2023-10-29T08:30:43.695Z,1.55
2023-10-29T08:31:45.956Z,1.38
2023-10-29T08:32:48.439Z,1.52
2023-10-29T08:33:50.719Z,1.50
2023-10-29T08:34:52.974Z,1.50
2023-10-29T08:35:55.513Z,1.63
2023-10-29T08:36:58.236Z,1.67
2023-10-29T08:38:00.487Z,1.67
2023-10-29T08:39:03.152Z,2.10
2023-10-29T08:40:06.285Z,1.45
2023-10-29T08:41:18.262Z,1.75
2023-10-29T08:42:20.662Z,1.73
2023-10-29T08:43:22.874Z,1.40
2023-10-29T08:44:25.210Z,1.42
2023-10-29T08:45:41.017Z,1.30
2023-10-29T08:46:44.676Z,1.17
2023-10-29T08:47:47.146Z,1.88
2023-10-29T08:48:49.428Z,1.77
2023-10-29T08:49:51.929Z,2.00
2023-10-29T08:50:54.333Z,1.50
2023-10-29T08:51:56.604Z,1.48
2023-10-29T08:52:59.522Z,1.77
2023-10-29T08:54:03.943Z,1.60
2023-10-29T08:55:08.044Z,1.60
2023-10-29T08:56:10.464Z,1.63
2023-10-29T08:57:12.871Z,1.52
2023-10-29T08:58:15.960Z,1.30
2023-10-29T08:59:18.275Z,1.85
2023-10-29T09:00:20.490Z,1.45
2023-10-29T09:01:33.635Z,1.63
2023-10-29T09:02:35.973Z,1.63
2023-10-29T09:03:38.494Z,1.38
2023-10-29T09:04:40.930Z,1.23
2023-10-29T09:05:44.219Z,1.60
2023-10-29T09:06:46.850Z,1.80
2023-10-29T09:07:49.271Z,1.38
2023-10-29T09:08:52.261Z,1.42
2023-10-29T09:09:55.175Z,1.80
2023-10-29T09:10:57.420Z,1.95
2023-10-29T09:11:59.783Z,2.30
2023-10-29T09:13:02.219Z,2.03
2023-10-29T09:14:04.845Z,1.67
2023-10-29T09:15:08.105Z,1.70
2023-10-29T09:16:10.811Z,2.00
2023-10-29T09:17:13.929Z,1.75
2023-10-29T09:18:16.510Z,1.20
2023-10-29T09:19:18.833Z,1.70
2023-10-29T09:20:21.068Z,1.40
2023-10-29T09:21:23.499Z,2.17
2023-10-29T09:22:25.781Z,1.60
2023-10-29T09:23:31.112Z,1.77
2023-10-29T09:24:33.398Z,1.75
2023-10-29T09:25:35.617Z,1.60
2023-10-29T09:26:38.078Z,1.45
2023-10-29T09:27:42.224Z,1.48
2023-10-29T09:28:44.742Z,1.60
2023-10-29T09:29:47.675Z,1.40
2023-10-29T09:30:50.129Z,1.80
2023-10-29T09:31:53.404Z,2.00
2023-10-29T09:32:58.128Z,3.65
2023-10-29T09:34:02.385Z,1.60
2023-10-29T09:35:05.903Z,1.70
2023-10-29T09:36:09.122Z,1.67
2023-10-29T09:37:11.620Z,1.55
2023-10-29T09:38:14.120Z,2.17
2023-10-29T09:39:16.361Z,1.40
2023-10-29T09:40:20.070Z,1.20
2023-10-29T09:41:22.319Z,2.10
2023-10-29T09:42:30.254Z,1.48
2023-10-29T09:43:39.921Z,1.55
2023-10-29T09:45:48.864Z,1.38
2023-10-29T09:46:58.275Z,1.10
2023-10-29T09:48:00.854Z,1.58
2023-10-29T09:49:05.479Z,1.45
2023-10-29T09:50:09.614Z,1.30
2023-10-29T09:51:11.959Z,1.55
2023-10-29T09:52:15.010Z,1.50
2023-10-29T09:53:19.253Z,1.40
2023-10-29T09:54:21.821Z,1.55
2023-10-29T09:55:24.393Z,1.10
2023-10-29T09:56:28.060Z,1.52
2023-10-29T09:57:31.260Z,1.17
2023-10-29T09:58:35.211Z,1.40
2023-10-29T09:59:37.757Z,1.13
2023-10-29T10:00:40.417Z,1.38
2023-10-29T10:01:57.577Z,1.73
2023-10-29T10:03:01.604Z,1.45
2023-10-29T10:04:04.607Z,1.25
2023-10-29T10:05:11.151Z,1.60
2023-10-29T10:06:19.364Z,1.17
2023-10-29T10:07:23.713Z,1.30
2023-10-29T10:08:27.592Z,1.60
2023-10-29T10:09:56.633Z,1.38
2023-10-29T10:10:59.854Z,1.73
2023-10-29T10:12:05.900Z,1.17
2023-10-29T10:13:09.901Z,1.30
2023-10-29T10:14:28.118Z,1.23
2023-10-29T10:15:30.327Z,1.10
2023-10-29T10:16:33.082Z,1.38
2023-10-29T10:17:35.384Z,1.45
2023-10-29T10:18:51.975Z,1.42
2023-10-29T10:20:07.894Z,1.23
2023-10-29T10:21:10.218Z,1.55
2023-10-29T10:22:12.998Z,1.60
2023-10-29T10:23:15.415Z,1.40
2023-10-29T10:24:18.318Z,1.67
2023-10-29T10:25:24.811Z,1.52
2023-10-29T10:26:28.191Z,1.50
2023-10-29T10:27:31.128Z,1.50
2023-10-29T10:28:33.937Z,1.20
2023-10-29T10:29:36.773Z,2.00
2023-10-29T10:30:40.131Z,1.70
2023-10-29T10:31:42.746Z,1.50
2023-10-29T10:32:46.321Z,1.50
2023-10-29T10:33:50.321Z,1.52
2023-10-29T10:34:53.396Z,1.55
2023-10-29T10:35:56.366Z,1.73
2023-10-29T10:37:01.781Z,1.52
2023-10-29T10:38:04.620Z,1.70
2023-10-29T10:39:07.140Z,1.33
2023-10-29T10:40:27.619Z,1.45
2023-10-29T10:41:46.394Z,1.95
2023-10-29T10:42:55.426Z,1.40
2023-10-29T10:44:27.812Z,1.23
2023-10-29T10:45:32.830Z,1.42
2023-10-29T10:46:37.899Z,1.40
2023-10-29T10:47:40.371Z,1.27
2023-10-29T10:48:43.505Z,1.80
2023-10-29T10:49:47.531Z,1.50
2023-10-29T10:50:54.571Z,1.45
2023-10-29T10:51:59.278Z,1.50
2023-10-29T10:53:02.150Z,1.52
2023-10-29T10:54:05.945Z,1.58
2023-10-29T10:55:17.841Z,1.75
2023-10-29T10:56:36.989Z,1.25
2023-10-29T10:57:39.547Z,2.15
2023-10-29T10:58:43.415Z,2.10
2023-10-29T10:59:46.160Z,1.92
2023-10-29T11:00:51.143Z,1.80
2023-10-29T11:01:53.459Z,2.08
2023-10-29T11:02:58.440Z,2.22
2023-10-29T11:04:03.170Z,1.80
2023-10-29T11:05:07.065Z,3.13
2023-10-29T11:06:12.308Z,1.98
2023-10-29T11:07:14.645Z,1.95
2023-10-29T11:08:17.787Z,1.95
2023-10-29T11:09:20.974Z,1.65
2023-10-29T11:10:24.464Z,3.85
2023-10-29T11:11:34.862Z,3.13
2023-10-29T11:12:37.831Z,2.45
2023-10-29T11:13:40.373Z,3.22
2023-10-29T11:15:22.054Z,2.92
2023-10-29T11:16:26.387Z,2.00
2023-10-29T11:17:56.878Z,1.27
2023-10-29T11:19:01.853Z,2.38
2023-10-29T11:20:04.432Z,3.30
2023-10-29T11:21:07.103Z,3.85
2023-10-29T11:22:23.346Z,2.58
2023-10-29T11:23:30.116Z,2.58
2023-10-29T11:24:32.564Z,3.90
2023-10-29T11:25:35.546Z,2.15
2023-10-29T11:26:38.019Z,2.65
2023-10-29T11:27:44.600Z,2.30
2023-10-29T11:28:47.063Z,2.35
2023-10-29T11:29:49.532Z,2.22
2023-10-29T11:31:16.697Z,2.30
2023-10-29T11:32:27.020Z,2.30
2023-10-29T11:33:29.372Z,4.05
2023-10-29T11:34:31.649Z,2.17
2023-10-29T11:35:35.053Z,3.60
2023-10-29T11:36:43.101Z,3.05
2023-10-29T11:37:45.476Z,3.97
2023-10-29T11:38:47.824Z,2.90
2023-10-29T11:39:50.093Z,3.17
2023-10-29T11:40:52.538Z,3.15
2023-10-29T11:41:55.744Z,3.78
2023-10-29T11:43:14.840Z,2.78
2023-10-29T11:44:19.986Z,4.30
2023-10-29T11:45:33.043Z,4.28
2023-10-29T11:47:00.192Z,2.80
2023-10-29T11:48:09.969Z,3.08
2023-10-29T11:49:12.308Z,2.10
2023-10-29T11:50:14.737Z,2.30
2023-10-29T11:51:18.934Z,2.70
2023-10-29T11:52:21.348Z,2.60
2023-10-29T11:53:27.369Z,2.20
2023-10-29T11:54:30.709Z,2.38
2023-10-29T11:56:07.183Z,5.57
2023-10-29T11:57:10.565Z,5.20
2023-10-29T11:58:12.782Z,2.25
2023-10-29T11:59:15.087Z,2.85
2023-10-29T12:00:17.471Z,2.78
2023-10-29T12:01:20.602Z,2.15
2023-10-29T12:02:23.542Z,2.10
2023-10-29T12:03:27.198Z,1.70
2023-10-29T12:04:31.269Z,2.05
2023-10-29T12:05:33.713Z,1.58
2023-10-29T12:06:45.540Z,1.42
2023-10-29T12:07:47.980Z,2.10
2023-10-29T12:08:50.334Z,4.80
2023-10-29T12:10:07.272Z,4.25
2023-10-29T12:11:09.653Z,3.72
2023-10-29T12:12:12.714Z,3.15
2023-10-29T12:13:18.236Z,4.22
2023-10-29T12:14:48.212Z,3.95
2023-10-29T12:15:58.656Z,3.45
2023-10-29T12:17:01.761Z,1.60
2023-10-29T12:18:04.535Z,2.10
2023-10-29T12:19:07.884Z,4.60
2023-10-29T12:20:21.590Z,3.67
2023-10-29T12:21:23.836Z,4.20
2023-10-29T12:22:31.970Z,3.60
2023-10-29T12:23:36.621Z,4.53
2023-10-29T12:24:39.143Z,3.58
2023-10-29T12:25:42.325Z,4.50
2023-10-29T12:26:44.606Z,4.22
2023-10-29T12:27:47.178Z,4.78
2023-10-29T12:28:50.726Z,2.42
2023-10-29T12:29:53.929Z,2.50
2023-10-29T12:30:57.853Z,3.20
2023-10-29T12:32:00.180Z,3.97
2023-10-29T12:33:21.300Z,2.15
2023-10-29T12:35:36.760Z,2.58
2023-10-29T12:36:39.725Z,4.50
2023-10-29T12:37:41.945Z,1.95
2023-10-29T12:38:44.627Z,2.00
2023-10-29T12:39:48.085Z,1.33
2023-10-29T12:41:14.263Z,2.40
2023-10-29T12:42:16.883Z,1.80
2023-10-29T12:43:42.496Z,2.60
2023-10-29T12:44:57.684Z,3.55
2023-10-29T12:46:05.223Z,3.20
2023-10-29T12:47:08.225Z,1.90
2023-10-29T12:48:11.770Z,1.65
2023-10-29T12:49:14.346Z,1.52
2023-10-29T12:50:16.835Z,1.70
2023-10-29T12:51:23.711Z,1.83
2023-10-29T12:52:27.384Z,3.67
2023-10-29T12:53:34.374Z,1.88
2023-10-29T12:54:43.847Z,1.90
2023-10-29T12:55:47.013Z,1.65
2023-10-29T12:57:03.183Z,1.67
2023-10-29T12:58:05.512Z,1.80
2023-10-29T12:59:08.959Z,1.60
2023-10-29T13:00:13.613Z,1.85
2023-10-29T13:01:16.558Z,1.65
2023-10-29T13:02:23.738Z,1.60
2023-10-29T13:03:26.395Z,1.60
2023-10-29T13:04:28.984Z,1.60
2023-10-29T13:05:32.509Z,1.40
2023-10-29T13:06:34.936Z,1.40
2023-10-29T13:07:41.037Z,1.60
2023-10-29T13:08:43.263Z,1.60
2023-10-29T13:09:46.210Z,1.45
2023-10-29T13:10:48.443Z,1.50
2023-10-29T13:11:53.176Z,1.80
2023-10-29T13:12:55.471Z,1.52
2023-10-29T13:14:08.233Z,1.60
2023-10-29T13:15:11.749Z,1.65
2023-10-29T13:16:14.148Z,1.95
2023-10-29T13:17:16.556Z,1.60
2023-10-29T13:18:20.413Z,2.30
2023-10-29T13:19:23.967Z,1.80
2023-10-29T13:20:27.922Z,2.00
2023-10-29T13:21:31.116Z,1.80
2023-10-29T13:22:33.571Z,1.60
2023-10-29T13:23:35.866Z,1.83
2023-10-29T13:24:38.445Z,1.30
2023-10-29T13:25:41.781Z,2.38
2023-10-29T13:26:44.363Z,1.40
2023-10-29T13:27:46.853Z,1.50
2023-10-29T13:28:50.891Z,1.27
2023-10-29T13:29:53.252Z,1.48
2023-10-29T13:30:56.444Z,1.45
2023-10-29T13:31:59.891Z,1.58
2023-10-29T13:33:02.220Z,1.50
2023-10-29T13:34:09.823Z,1.60
2023-10-29T13:35:12.539Z,1.70
2023-10-29T13:36:16.165Z,1.20
2023-10-29T13:37:19.461Z,1.50
2023-10-29T13:38:21.969Z,1.52
2023-10-29T13:39:24.211Z,1.20
2023-10-29T13:40:26.928Z,1.73
2023-10-29T13:41:29.160Z,1.70
2023-10-29T13:42:31.588Z,1.70
2023-10-29T13:43:34.213Z,1.52
2023-10-29T13:44:40.269Z,1.38
2023-10-29T13:45:42.494Z,1.38
2023-10-29T13:46:44.911Z,1.55
2023-10-29T13:47:47.488Z,1.90
2023-10-29T13:48:53.683Z,1.08
2023-10-29T13:49:56.411Z,1.20
2023-10-29T13:51:07.443Z,1.48
2023-10-29T13:52:09.947Z,1.20
2023-10-29T13:53:12.393Z,1.52
2023-10-29T13:54:14.703Z,1.63
2023-10-29T13:55:17.420Z,1.50
2023-10-29T13:56:19.807Z,1.15
2023-10-29T13:57:22.331Z,1.58
2023-10-29T13:58:24.845Z,1.40
2023-10-29T13:59:27.061Z,1.17
2023-10-29T14:00:30.164Z,1.73
2023-10-29T14:01:32.778Z,1.88
2023-10-29T14:02:35.254Z,1.70
2023-10-29T14:03:37.725Z,1.92
2023-10-29T14:04:40.188Z,2.13
2023-10-29T14:05:42.441Z,1.73
2023-10-29T14:06:46.651Z,1.80
2023-10-29T14:07:49.204Z,1.60
2023-10-29T14:08:51.667Z,2.10
2023-10-29T14:09:54.228Z,1.90
2023-10-29T14:10:56.513Z,2.10
2023-10-29T14:11:58.807Z,1.92
2023-10-29T14:13:01.270Z,1.85